Time;durP1;ratioP1;P1;durP2;ratioP2;P2;SDS_P1;SDS_P2;PMS_P1;PMS_P2;Temp;Humidity;BMP_temperature;BMP_pressure;BME280_temperature;BME280_humidity;BME280_pressure;Samples;Min_cycle;Max_cycle;Signal;HPM_P1;HPM_P2
2022/09/17 00:01:25;;;;;;;;;;;11.60;87.60;;;;;;5031749;28;19913;-78
2022/09/17 00:03:55;;;;;;;;;;;11.60;87.90;;;;;;5031058;28;19967;-79
2022/09/17 00:06:21;;;;;;;;;;;11.50;88.00;;;;;;5032451;28;19921;-78
2022/09/17 00:08:46;;;;;;;;;;;11.50;88.30;;;;;;5042019;28;19913;-79
2022/09/17 00:11:13;;;;;;;;;;;11.50;88.20;;;;;;5048627;28;19916;-78
2022/09/17 00:13:39;;;;;;;;;;;11.60;88.60;;;;;;5044616;28;19991;-77
2022/09/17 00:16:05;;;;;;;;;;;11.60;88.10;;;;;;5043567;28;19909;-78
2022/09/17 00:18:31;;;;;;;;;;;11.60;88.20;;;;;;5040276;28;19913;-77
2022/09/17 00:20:56;;;;;;;;;;;11.50;88.10;;;;;;5046300;28;19913;-79
2022/09/17 00:23:21;;;;;;;;;;;11.50;88.50;;;;;;5043573;28;20375;-79
2022/09/17 00:25:47;;;;;;;;;;;11.50;88.50;;;;;;5038771;28;20399;-78
2022/09/17 00:28:13;;;;;;;;;;;11.60;88.60;;;;;;5036616;28;19917;-79
2022/09/17 00:30:39;;;;;;;;;;;11.60;88.30;;;;;;5048744;28;19935;-79
2022/09/17 00:33:05;;;;;;;;;;;11.60;88.30;;;;;;5050464;28;20415;-78
2022/09/17 00:35:30;;;;;;;;;;;11.60;88.20;;;;;;5042081;28;19913;-79
2022/09/17 00:37:56;;;;;;;;;;;11.60;88.50;;;;;;5044608;28;19917;-78
2022/09/17 00:40:21;;;;;;;;;;;11.50;88.30;;;;;;5042247;28;19923;-78
2022/09/17 00:42:47;;;;;;;;;;;11.50;88.00;;;;;;5039764;28;19960;-79
2022/09/17 00:45:12;;;;;;;;;;;11.40;88.30;;;;;;5037981;28;19959;-78
2022/09/17 00:47:38;;;;;;;;;;;11.30;88.70;;;;;;5046472;28;19917;-79
2022/09/17 00:50:07;;;;;;;;;;;11.30;88.60;;;;;;5045008;28;19913;-78
2022/09/17 00:52:38;;;;;;;;;;;11.30;88.60;;;;;;5046808;28;19913;-79
2022/09/17 00:55:24;;;;;;;;;;;11.20;88.50;;;;;;5041420;28;19913;-77
2022/09/17 00:57:51;;;;;;;;;;;11.20;88.60;;;;;;5046435;28;19921;-79
2022/09/17 01:00:17;;;;;;;;;;;11.20;88.20;;;;;;5054606;28;19917;-78
2022/09/17 01:02:42;;;;;;;;;;;11.20;88.10;;;;;;5041967;28;19921;-78
2022/09/17 01:05:09;;;;;;;;;;;11.20;88.10;;;;;;5042814;28;19924;-78
2022/09/17 01:07:34;;;;;;;;;;;11.20;88.00;;;;;;5043942;28;19935;-79
2022/09/17 01:10:19;;;;;;;;;;;11.30;88.30;;;;;;5048220;28;19916;-79
2022/09/17 01:12:56;;;;;;;;;;;11.20;88.30;;;;;;5044843;28;19912;-79
2022/09/17 01:15:35;;;;;;;;;;;11.20;88.00;;;;;;5043413;28;19966;-78
2022/09/17 01:18:03;;;;;;;;;;;11.10;88.20;;;;;;5038386;28;19924;-79
2022/09/17 01:20:29;;;;;;;;;;;11.00;88.30;;;;;;5050122;28;20004;-78
2022/09/17 01:23:10;;;;;;;;;;;11.00;88.40;;;;;;5045999;28;19957;-78
2022/09/17 01:25:51;;;;;;;;;;;11.00;88.50;;;;;;5044082;28;19913;-78
2022/09/17 01:28:20;;;;;;;;;;;10.90;88.80;;;;;;5039676;28;19963;-78
2022/09/17 01:31:09;;;;;;;;;;;10.90;89.10;;;;;;5045092;28;19924;-77
2022/09/17 01:33:38;;;;;;;;;;;10.90;89.00;;;;;;5049739;28;19921;-78
2022/09/17 01:36:09;;;;;;;;;;;10.90;88.90;;;;;;5034865;28;19945;-78
2022/09/17 01:38:53;;;;;;;;;;;10.80;88.60;;;;;;5045834;28;20011;-78
2022/09/17 01:41:42;;;;;;;;;;;10.90;88.60;;;;;;5048316;28;19966;-79
2022/09/17 01:44:15;;;;;;;;;;;10.90;88.90;;;;;;5041286;28;19982;-79
2022/09/17 01:46:50;;;;;;;;;;;10.80;89.20;;;;;;5039172;28;19970;-79
2022/09/17 01:49:16;;;;;;;;;;;10.80;89.10;;;;;;5050386;28;20421;-78
2022/09/17 01:51:45;;;;;;;;;;;10.80;89.10;;;;;;5046487;28;19913;-78
2022/09/17 01:54:22;;;;;;;;;;;10.80;89.50;;;;;;5047805;28;19912;-78
2022/09/17 01:56:57;;;;;;;;;;;10.80;89.30;;;;;;5042392;28;19925;-78
2022/09/17 01:59:43;;;;;;;;;;;10.80;89.20;;;;;;5048125;28;19921;-78
2022/09/17 02:02:27;;;;;;;;;;;10.80;89.50;;;;;;5024921;28;19920;-78
2022/09/17 02:05:01;;;;;;;;;;;10.90;89.10;;;;;;5039126;28;20372;-79
2022/09/17 02:07:27;;;;;;;;;;;10.90;89.20;;;;;;5042712;28;19943;-79
2022/09/17 02:10:02;;;;;;;;;;;10.90;89.00;;;;;;5052071;28;19950;-79
2022/09/17 02:12:32;;;;;;;;;;;10.90;89.30;;;;;;5039931;28;20307;-79
2022/09/17 02:14:59;;;;;;;;;;;10.80;89.40;;;;;;5041913;28;20325;-79
2022/09/17 02:17:37;;;;;;;;;;;10.80;89.40;;;;;;5048357;28;19917;-79
2022/09/17 02:20:04;;;;;;;;;;;10.90;89.20;;;;;;5045974;28;19952;-78
2022/09/17 02:22:41;;;;;;;;;;;10.90;89.10;;;;;;5038052;28;20325;-79
2022/09/17 02:25:16;;;;;;;;;;;10.90;89.30;;;;;;5041513;28;19935;-79
2022/09/17 02:28:01;;;;;;;;;;;10.90;89.30;;;;;;5043753;28;19917;-78
2022/09/17 02:30:26;;;;;;;;;;;11.00;89.50;;;;;;5035737;28;19964;-77
2022/09/17 02:32:52;;;;;;;;;;;11.00;89.10;;;;;;5041340;28;19952;-78
2022/09/17 02:35:18;;;;;;;;;;;11.00;89.00;;;;;;5038599;28;19975;-78
2022/09/17 02:37:43;;;;;;;;;;;11.00;88.90;;;;;;5032874;28;19917;-78
2022/09/17 02:40:09;;;;;;;;;;;11.00;89.00;;;;;;5035051;28;20430;-78
2022/09/17 02:42:41;;;;;;;;;;;10.90;89.10;;;;;;5044288;28;19909;-78
2022/09/17 02:45:10;;;;;;;;;;;10.90;89.30;;;;;;5043559;28;20376;-78
2022/09/17 02:47:38;;;;;;;;;;;10.90;89.30;;;;;;5048220;28;19917;-79
2022/09/17 02:50:13;;;;;;;;;;;11.00;89.30;;;;;;5041431;28;19945;-78
2022/09/17 02:52:50;;;;;;;;;;;10.90;89.20;;;;;;5050449;28;19924;-79
2022/09/17 02:55:17;;;;;;;;;;;10.90;89.30;;;;;;5050805;28;19913;-79
2022/09/17 02:57:46;;;;;;;;;;;11.00;89.20;;;;;;5044886;28;19924;-79
2022/09/17 03:00:13;;;;;;;;;;;11.10;89.00;;;;;;5043418;28;19913;-78
2022/09/17 03:02:42;;;;;;;;;;;11.00;88.60;;;;;;5049026;28;20039;-79
2022/09/17 03:05:08;;;;;;;;;;;11.10;88.40;;;;;;5051152;28;19924;-79
2022/09/17 03:07:33;;;;;;;;;;;11.00;88.70;;;;;;5044044;28;19916;-79
2022/09/17 03:09:59;;;;;;;;;;;11.10;88.50;;;;;;5050502;28;19923;-79
2022/09/17 03:12:25;;;;;;;;;;;11.10;88.60;;;;;;5049167;28;19919;-80
2022/09/17 03:14:51;;;;;;;;;;;11.20;88.10;;;;;;5040271;28;19921;-79
2022/09/17 03:17:16;;;;;;;;;;;11.10;88.30;;;;;;5047224;28;20287;-78
2022/09/17 03:19:42;;;;;;;;;;;11.10;88.40;;;;;;5044700;28;19912;-79
2022/09/17 03:22:07;;;;;;;;;;;11.10;88.50;;;;;;5038638;28;19920;-78
2022/09/17 03:24:32;;;;;;;;;;;11.10;88.50;;;;;;5039239;28;19988;-80
2022/09/17 03:26:58;;;;;;;;;;;11.10;88.30;;;;;;5041748;28;19917;-78
2022/09/17 03:29:23;;;;;;;;;;;11.10;87.90;;;;;;5046348;28;19919;-79
2022/09/17 03:31:49;;;;;;;;;;;11.10;88.30;;;;;;5042061;28;19924;-80
2022/09/17 03:34:14;;;;;;;;;;;11.00;87.90;;;;;;5039562;28;19925;-79
2022/09/17 03:36:40;;;;;;;;;;;11.10;87.80;;;;;;5050624;28;20419;-79
2022/09/17 03:39:05;;;;;;;;;;;11.00;87.90;;;;;;5047677;28;20742;-80
2022/09/17 03:41:30;;;;;;;;;;;11.00;87.80;;;;;;5047350;28;20280;-81
2022/09/17 03:43:56;;;;;;;;;;;11.10;88.00;;;;;;5045994;28;19920;-78
2022/09/17 03:46:21;;;;;;;;;;;11.10;87.60;;;;;;5049536;28;19966;-79
2022/09/17 03:48:47;;;;;;;;;;;11.10;87.30;;;;;;5051501;28;19912;-78
2022/09/17 03:51:12;;;;;;;;;;;11.10;87.00;;;;;;5049035;28;20399;-79
2022/09/17 03:53:38;;;;;;;;;;;11.00;87.40;;;;;;5042537;28;19919;-80
2022/09/17 03:56:04;;;;;;;;;;;11.00;87.60;;;;;;5050124;28;19921;-79
2022/09/17 03:58:30;;;;;;;;;;;10.90;87.90;;;;;;5050795;28;20046;-79
2022/09/17 04:00:56;;;;;;;;;;;11.00;87.60;;;;;;5044944;28;20280;-80
2022/09/17 04:03:26;;;;;;;;;;;10.90;87.80;;;;;;5050480;28;19930;-80
2022/09/17 04:05:51;;;;;;;;;;;10.80;88.10;;;;;;5048246;28;19913;-79
2022/09/17 04:08:16;;;;;;;;;;;11.00;87.60;;;;;;5050844;28;19920;-78
2022/09/17 04:10:43;;;;;;;;;;;10.80;87.70;;;;;;5044341;28;19917;-80
2022/09/17 04:13:09;;;;;;;;;;;10.80;87.70;;;;;;5051053;28;20002;-79
2022/09/17 04:15:34;;;;;;;;;;;10.80;87.60;;;;;;5047715;28;19960;-79
2022/09/17 04:18:00;;;;;;;;;;;10.70;87.40;;;;;;5045589;28;19923;-79
2022/09/17 04:20:25;;;;;;;;;;;10.80;87.50;;;;;;5049732;28;19913;-79
2022/09/17 04:22:51;;;;;;;;;;;10.70;87.70;;;;;;5046362;28;19917;-79
2022/09/17 04:25:17;;;;;;;;;;;10.80;87.90;;;;;;5048912;28;19932;-79
2022/09/17 04:27:43;;;;;;;;;;;10.60;88.10;;;;;;5045669;28;19944;-79
2022/09/17 04:30:08;;;;;;;;;;;10.70;87.90;;;;;;5046212;28;19913;-80
2022/09/17 04:32:34;;;;;;;;;;;10.70;87.50;;;;;;5041788;28;20011;-79
2022/09/17 04:34:59;;;;;;;;;;;10.70;87.70;;;;;;5041938;28;20016;-80
2022/09/17 04:37:25;;;;;;;;;;;10.70;87.50;;;;;;5052475;28;19920;-79
2022/09/17 04:39:51;;;;;;;;;;;10.70;87.30;;;;;;5051435;28;19913;-79
2022/09/17 04:42:16;;;;;;;;;;;10.80;87.20;;;;;;5042890;28;19913;-80
2022/09/17 04:44:42;;;;;;;;;;;10.70;87.00;;;;;;5050323;28;19913;-80
2022/09/17 04:47:07;;;;;;;;;;;10.70;87.40;;;;;;5055208;28;20302;-80
2022/09/17 04:49:32;;;;;;;;;;;10.70;87.30;;;;;;5039606;28;19918;-79
2022/09/17 04:51:58;;;;;;;;;;;10.80;87.10;;;;;;5044860;28;19920;-80
2022/09/17 04:54:23;;;;;;;;;;;10.70;87.10;;;;;;5051323;28;19935;-78
2022/09/17 04:56:49;;;;;;;;;;;10.70;87.10;;;;;;5047505;28;19940;-79
2022/09/17 04:59:14;;;;;;;;;;;10.70;87.30;;;;;;5057476;28;19917;-78
2022/09/17 05:01:42;;;;;;;;;;;10.60;87.30;;;;;;5057260;28;19967;-78
2022/09/17 05:04:07;;;;;;;;;;;10.60;87.60;;;;;;5046758;28;19920;-80
2022/09/17 05:06:33;;;;;;;;;;;10.60;87.60;;;;;;5045055;28;19917;-80
2022/09/17 05:08:58;;;;;;;;;;;10.70;87.90;;;;;;5047753;28;19913;-80
2022/09/17 05:11:24;;;;;;;;;;;10.80;87.70;;;;;;5043412;28;19995;-80
2022/09/17 05:13:49;;;;;;;;;;;10.80;87.40;;;;;;5065599;28;19920;-78
2022/09/17 05:16:15;;;;;;;;;;;10.90;87.20;;;;;;5068478;28;20335;-80
2022/09/17 05:18:40;;;;;;;;;;;10.90;87.30;;;;;;5038918;28;20283;-79
2022/09/17 05:21:06;;;;;;;;;;;10.90;87.00;;;;;;5045629;28;19924;-78
2022/09/17 05:23:31;;;;;;;;;;;10.90;86.80;;;;;;5058758;28;19901;-79
2022/09/17 05:25:58;;;;;;;;;;;10.90;87.00;;;;;;5044218;28;19916;-81
2022/09/17 05:28:24;;;;;;;;;;;10.90;87.00;;;;;;5045667;28;19959;-81
2022/09/17 05:30:49;;;;;;;;;;;10.90;87.10;;;;;;5042659;28;19913;-86
2022/09/17 05:33:15;;;;;;;;;;;10.90;87.20;;;;;;5038919;28;19921;-83
2022/09/17 05:35:42;;;;;;;;;;;11.00;87.20;;;;;;5037992;28;19913;-87
2022/09/17 05:38:08;;;;;;;;;;;10.90;87.00;;;;;;5038115;28;19909;-82
2022/09/17 05:40:33;;;;;;;;;;;11.00;87.00;;;;;;5046991;28;20584;-83
2022/09/17 05:43:03;;;;;;;;;;;10.90;86.70;;;;;;5047174;28;20003;-84
2022/09/17 05:45:28;;;;;;;;;;;11.00;86.40;;;;;;5042695;28;19913;-81
2022/09/17 05:47:55;;;;;;;;;;;10.90;86.40;;;;;;5042030;28;20428;-83
2022/09/17 05:50:21;;;;;;;;;;;10.90;86.30;;;;;;5051006;28;19939;-82
2022/09/17 05:52:46;;;;;;;;;;;11.00;86.40;;;;;;5064840;28;19921;-80
2022/09/17 05:55:11;;;;;;;;;;;11.10;85.80;;;;;;5053216;28;19916;-83
2022/09/17 05:57:37;;;;;;;;;;;11.20;85.90;;;;;;5068517;22;19928;-86
2022/09/17 06:00:03;;;;;;;;;;;11.30;85.70;;;;;;5067056;28;19912;-87
2022/09/17 06:02:28;;;;;;;;;;;11.40;85.40;;;;;;5066970;28;19912;-86
2022/09/17 06:04:59;;;;;;;;;;;11.40;85.50;;;;;;5066503;28;20000;-85
2022/09/17 06:07:25;;;;;;;;;;;11.40;85.30;;;;;;5055927;28;19928;-82
2022/09/17 06:09:50;;;;;;;;;;;11.50;84.90;;;;;;5051480;28;19921;-82
2022/09/17 06:12:16;;;;;;;;;;;11.50;84.60;;;;;;5047796;28;19923;-85
2022/09/17 06:14:41;;;;;;;;;;;11.40;84.50;;;;;;5049900;28;20376;-84
2022/09/17 06:17:06;;;;;;;;;;;11.50;84.60;;;;;;5049907;28;19966;-86
2022/09/17 06:19:58;;;;;;;;;;;11.60;84.50;;;;;;5047631;28;20302;-88
2022/09/17 06:22:24;;;;;;;;;;;11.60;84.10;;;;;;5039662;28;20006;-87
2022/09/17 06:24:49;;;;;;;;;;;11.60;83.70;;;;;;5045688;28;19978;-88
2022/09/17 06:27:15;;;;;;;;;;;11.60;83.80;;;;;;5048568;28;20400;-87
2022/09/17 06:29:40;;;;;;;;;;;11.60;84.30;;;;;;5036812;28;19916;-88
2022/09/17 06:32:09;;;;;;;;;;;11.60;83.70;;;;;;5032559;28;19932;-88
2022/09/17 06:34:35;;;;;;;;;;;11.60;83.00;;;;;;5037446;28;20323;-88
2022/09/17 06:37:00;;;;;;;;;;;11.60;83.60;;;;;;5056888;28;19939;-88
2022/09/17 06:39:26;;;;;;;;;;;11.70;82.60;;;;;;5052047;28;19913;-88
2022/09/17 06:41:51;;;;;;;;;;;11.70;82.50;;;;;;5052014;28;19909;-87
2022/09/17 06:44:17;;;;;;;;;;;11.60;83.10;;;;;;5050651;28;20023;-87
2022/09/17 06:46:43;;;;;;;;;;;11.70;82.60;;;;;;5050751;28;19919;-88
2022/09/17 06:49:08;;;;;;;;;;;11.70;82.70;;;;;;5059746;28;19916;-87
2022/09/17 06:51:34;;;;;;;;;;;11.70;82.70;;;;;;5034667;28;19916;-88
2022/09/17 06:54:00;;;;;;;;;;;11.60;83.20;;;;;;5051423;28;19909;-88
2022/09/17 06:56:25;;;;;;;;;;;11.60;82.60;;;;;;5041081;28;19913;-88
2022/09/17 06:59:28;;;;;;;;;;;11.70;82.30;;;;;;5044889;28;19917;-89
2022/09/17 07:01:55;;;;;;;;;;;11.60;82.40;;;;;;5037323;28;20453;-88
2022/09/17 07:04:35;;;;;;;;;;;11.60;82.10;;;;;;5048417;28;19908;-87
2022/09/17 07:07:04;;;;;;;;;;;11.70;82.00;;;;;;5064503;28;19963;-88
2022/09/17 07:09:35;;;;;;;;;;;11.80;81.30;;;;;;5066715;28;20371;-87
2022/09/17 07:12:09;;;;;;;;;;;11.70;81.70;;;;;;5067623;28;19909;-87
2022/09/17 07:14:50;;;;;;;;;;;;;;;;;;;;;
2022/09/17 07:17:27;;;;;;;;;;;11.80;81.50;;;;;;5045924;28;19913;-87
2022/09/17 07:20:13;;;;;;;;;;;11.90;81.40;;;;;;5050682;28;19917;-87
2022/09/17 07:25:35;;;;;;;;;;;11.80;81.50;;;;;;5047330;28;19913;-87
2022/09/17 07:28:02;;;;;;;;;;;11.80;81.00;;;;;;5052779;28;23439;-88
2022/09/17 07:30:28;;;;;;;;;;;11.80;80.90;;;;;;5058900;28;19919;-87
2022/09/17 07:32:54;;;;;;;;;;;11.60;81.10;;;;;;5054599;28;19921;-87
2022/09/17 07:35:19;;;;;;;;;;;11.60;82.00;;;;;;5050809;28;20382;-87
2022/09/17 07:37:46;;;;;;;;;;;11.70;81.80;;;;;;5047971;28;19913;-84
2022/09/17 07:40:11;;;;;;;;;;;11.70;81.90;;;;;;5046537;28;20434;-83
2022/09/17 07:42:36;;;;;;;;;;;11.90;81.20;;;;;;5050641;28;20384;-83
2022/09/17 07:45:14;;;;;;;;;;;11.90;81.00;;;;;;5047828;28;20307;-86
2022/09/17 07:47:44;;;;;;;;;;;11.80;81.60;;;;;;5059731;28;19962;-84
2022/09/17 07:50:36;;;;;;;;;;;11.70;81.90;;;;;;5065379;28;19959;-86
2022/09/17 07:56:17;;;;;;;;;;;11.60;82.30;;;;;;5045265;28;20012;-88
2022/09/17 07:59:20;;;;;;;;;;;11.70;82.20;;;;;;5063493;28;20483;-85
2022/09/17 08:01:45;;;;;;;;;;;11.80;81.90;;;;;;5046447;28;19913;-86
2022/09/17 08:07:28;;;;;;;;;;;12.10;81.30;;;;;;5037576;22;19950;-87
2022/09/17 08:09:53;;;;;;;;;;;12.30;80.50;;;;;;5029747;28;20007;-87
2022/09/17 08:12:19;;;;;;;;;;;12.30;80.10;;;;;;5032154;28;19913;-86
2022/09/17 08:14:44;;;;;;;;;;;12.30;79.60;;;;;;5049084;28;20300;-84
2022/09/17 08:17:10;;;;;;;;;;;12.40;79.20;;;;;;5029502;28;19921;-85
2022/09/17 08:19:35;;;;;;;;;;;12.40;79.40;;;;;;5042300;28;19913;-90
2022/09/17 08:22:05;;;;;;;;;;;12.40;79.10;;;;;;5032732;28;19909;-88
2022/09/17 08:24:31;;;;;;;;;;;12.40;79.10;;;;;;5047581;28;19920;-85
2022/09/17 08:26:57;;;;;;;;;;;12.40;78.40;;;;;;5031335;28;20300;-86
2022/09/17 08:29:22;;;;;;;;;;;12.40;77.90;;;;;;5031326;28;19913;-84
2022/09/17 08:31:48;;;;;;;;;;;12.50;78.20;;;;;;5034376;28;19963;-83
2022/09/17 08:34:13;;;;;;;;;;;12.60;76.70;;;;;;5044522;28;19921;-87
2022/09/17 08:36:39;;;;;;;;;;;12.80;75.50;;;;;;5038322;28;19928;-84
2022/09/17 08:39:04;;;;;;;;;;;12.80;75.50;;;;;;5036609;28;19913;-83
2022/09/17 08:41:51;;;;;;;;;;;12.90;73.70;;;;;;5033390;28;19914;-84
2022/09/17 08:44:24;;;;;;;;;;;13.00;73.80;;;;;;5054342;28;19917;-85
2022/09/17 08:46:49;;;;;;;;;;;13.00;72.20;;;;;;5057939;28;19913;-85
2022/09/17 08:49:24;;;;;;;;;;;13.00;73.40;;;;;;5032372;28;19931;-85
2022/09/17 08:51:52;;;;;;;;;;;13.00;72.70;;;;;;5060687;28;20675;-86
2022/09/17 08:54:33;;;;;;;;;;;13.00;73.20;;;;;;5034968;28;19916;-86
2022/09/17 08:57:08;;;;;;;;;;;13.00;72.00;;;;;;5031694;28;20377;-88
2022/09/17 08:59:45;;;;;;;;;;;13.10;72.80;;;;;;5034788;28;19951;-87
2022/09/17 09:02:22;;;;;;;;;;;13.20;73.30;;;;;;5035832;28;19912;-85
2022/09/17 09:04:50;;;;;;;;;;;13.50;72.30;;;;;;5055405;28;20526;-88
2022/09/17 09:07:20;;;;;;;;;;;13.60;72.40;;;;;;5051945;28;19975;-88
2022/09/17 09:10:00;;;;;;;;;;;13.80;70.60;;;;;;5082883;22;19939;-90
2022/09/17 09:12:29;;;;;;;;;;;13.80;69.50;;;;;;5071766;28;19921;-88
2022/09/17 09:15:02;;;;;;;;;;;13.80;70.80;;;;;;5066615;28;19927;-85
2022/09/17 09:17:33;;;;;;;;;;;13.70;70.50;;;;;;5083825;28;19919;-84
2022/09/17 09:19:58;;;;;;;;;;;13.70;70.20;;;;;;5063155;28;19908;-81
2022/09/17 09:22:29;;;;;;;;;;;13.80;68.60;;;;;;5073796;28;20292;-84
2022/09/17 09:25:04;;;;;;;;;;;13.80;69.30;;;;;;5081499;28;19940;-85
2022/09/17 09:27:50;;;;;;;;;;;13.80;68.40;;;;;;5070941;28;20564;-83
2022/09/17 09:30:22;;;;;;;;;;;13.80;68.90;;;;;;5078907;28;19977;-83
2022/09/17 09:32:58;;;;;;;;;;;13.80;69.00;;;;;;5086259;28;19912;-83
2022/09/17 09:35:31;;;;;;;;;;;13.90;68.40;;;;;;5065471;28;19991;-82
2022/09/17 09:37:59;;;;;;;;;;;13.60;68.60;;;;;;5074394;28;20323;-83
2022/09/17 09:40:45;;;;;;;;;;;13.70;67.50;;;;;;5073917;28;19947;-85
2022/09/17 09:43:18;;;;;;;;;;;13.90;66.90;;;;;;5065917;28;19969;-86
2022/09/17 09:46:02;;;;;;;;;;;14.00;66.30;;;;;;5082225;28;20310;-83
2022/09/17 09:48:40;;;;;;;;;;;14.10;67.20;;;;;;5064767;28;19923;-83
2022/09/17 09:51:24;;;;;;;;;;;14.10;66.40;;;;;;5071661;28;20424;-84
2022/09/17 09:54:10;;;;;;;;;;;14.10;64.70;;;;;;5087665;28;19986;-85
2022/09/17 09:56:55;;;;;;;;;;;14.30;64.60;;;;;;5034886;28;20058;-83
2022/09/17 09:59:21;;;;;;;;;;;14.40;64.70;;;;;;5094653;28;19908;-82
2022/09/17 10:01:46;;;;;;;;;;;14.60;63.90;;;;;;5083414;28;19913;-83
2022/09/17 10:04:17;;;;;;;;;;;14.60;63.80;;;;;;5064829;28;19955;-83
2022/09/17 10:06:44;;;;;;;;;;;14.60;64.40;;;;;;5078714;28;19924;-83
2022/09/17 10:09:10;;;;;;;;;;;14.50;62.90;;;;;;5073526;28;19916;-82
2022/09/17 10:11:36;;;;;;;;;;;14.60;62.30;;;;;;5084534;28;19908;-84
2022/09/17 10:14:25;;;;;;;;;;;14.60;61.50;;;;;;5077732;28;19932;-87
2022/09/17 10:17:11;;;;;;;;;;;14.50;61.80;;;;;;5066854;28;20430;-85
2022/09/17 10:19:37;;;;;;;;;;;14.60;63.20;;;;;;5073537;28;20015;-84
2022/09/17 10:22:18;;;;;;;;;;;14.70;61.30;;;;;;5076668;28;19985;-84
2022/09/17 10:24:44;;;;;;;;;;;14.80;60.50;;;;;;5068304;28;19917;-85
2022/09/17 10:27:12;;;;;;;;;;;14.60;60.50;;;;;;5081636;28;19912;-83
2022/09/17 10:29:41;;;;;;;;;;;14.60;61.00;;;;;;5072460;28;19966;-84
2022/09/17 10:32:12;;;;;;;;;;;14.60;61.20;;;;;;5076461;28;19912;-82
2022/09/17 10:34:39;;;;;;;;;;;14.60;60.60;;;;;;5070230;28;19985;-82
2022/09/17 10:37:25;;;;;;;;;;;14.50;61.60;;;;;;5058104;28;19920;-83
2022/09/17 10:39:52;;;;;;;;;;;14.60;60.20;;;;;;5065110;28;19954;-83
2022/09/17 10:42:18;;;;;;;;;;;14.70;61.70;;;;;;5073402;28;19913;-83
2022/09/17 10:44:53;;;;;;;;;;;14.90;61.00;;;;;;5070001;28;20384;-81
2022/09/17 10:47:29;;;;;;;;;;;15.10;59.50;;;;;;5065305;28;19943;-83
2022/09/17 10:50:00;;;;;;;;;;;15.40;59.50;;;;;;5071272;28;19912;-82
2022/09/17 10:52:25;;;;;;;;;;;15.50;58.60;;;;;;5087005;28;19908;-82
2022/09/17 10:54:51;;;;;;;;;;;15.40;59.80;;;;;;5090869;28;20427;-82
2022/09/17 10:57:22;;;;;;;;;;;15.30;60.10;;;;;;5089880;28;20378;-81
2022/09/17 10:59:57;;;;;;;;;;;15.20;61.80;;;;;;5084310;28;20284;-84
2022/09/17 11:02:36;;;;;;;;;;;14.90;62.10;;;;;;5074968;28;19966;-82
2022/09/17 11:05:20;;;;;;;;;;;14.70;61.20;;;;;;5088549;28;19913;-83
2022/09/17 11:08:04;;;;;;;;;;;14.50;60.70;;;;;;5081657;28;20418;-82
2022/09/17 11:10:38;;;;;;;;;;;14.30;60.60;;;;;;5072543;28;19931;-86
2022/09/17 11:13:10;;;;;;;;;;;14.30;61.60;;;;;;5066467;28;19913;-85
2022/09/17 11:15:54;;;;;;;;;;;14.30;61.30;;;;;;5068421;28;19920;-82
2022/09/17 11:18:31;;;;;;;;;;;14.30;62.50;;;;;;5069925;28;19908;-82
2022/09/17 11:21:00;;;;;;;;;;;14.30;63.50;;;;;;5072114;28;19908;-82
2022/09/17 11:23:43;;;;;;;;;;;14.40;64.10;;;;;;5072040;28;19939;-82
2022/09/17 11:26:11;;;;;;;;;;;14.40;64.70;;;;;;5064987;28;19973;-83
2022/09/17 11:28:45;;;;;;;;;;;14.40;64.20;;;;;;5057765;28;19912;-83
2022/09/17 11:31:27;;;;;;;;;;;14.30;66.00;;;;;;5060776;28;19958;-84
2022/09/17 11:33:53;;;;;;;;;;;14.10;64.70;;;;;;5052571;28;19916;-83
2022/09/17 11:36:25;;;;;;;;;;;14.00;64.40;;;;;;5075522;28;20403;-86
2022/09/17 11:38:52;;;;;;;;;;;13.70;65.50;;;;;;5060805;28;20191;-81
2022/09/17 11:41:20;;;;;;;;;;;13.60;66.70;;;;;;5061302;28;19917;-81
2022/09/17 11:43:49;;;;;;;;;;;13.60;68.20;;;;;;5066868;28;19912;-83
2022/09/17 11:46:21;;;;;;;;;;;13.70;66.40;;;;;;5071661;28;19963;-83
2022/09/17 11:48:57;;;;;;;;;;;13.70;66.60;;;;;;5054457;28;19995;-84
2022/09/17 11:51:32;;;;;;;;;;;13.80;65.90;;;;;;5060579;28;19912;-84
2022/09/17 11:54:01;;;;;;;;;;;13.90;65.80;;;;;;5052481;28;19912;-84
2022/09/17 11:58:57;;;;;;;;;;;14.00;65.90;;;;;;5125135;22;19925;-78
2022/09/17 12:01:28;;;;;;;;;;;14.00;66.00;;;;;;5095692;28;19919;-81
2022/09/17 12:03:58;;;;;;;;;;;14.00;64.30;;;;;;5103928;28;19931;-81
2022/09/17 12:06:31;;;;;;;;;;;14.10;66.80;;;;;;5078303;28;19946;-89
2022/09/17 12:08:59;;;;;;;;;;;14.50;65.90;;;;;;5075228;28;19912;-82
2022/09/17 12:11:28;;;;;;;;;;;14.90;64.90;;;;;;5055796;28;20398;-85
2022/09/17 12:14:00;;;;;;;;;;;15.10;62.60;;;;;;5058214;28;19916;-84
2022/09/17 12:16:34;;;;;;;;;;;15.10;61.10;;;;;;5061571;28;19912;-83
2022/09/17 12:19:11;;;;;;;;;;;14.90;61.60;;;;;;5064735;28;19996;-84
2022/09/17 12:21:39;;;;;;;;;;;14.70;62.70;;;;;;5044245;28;19913;-82
2022/09/17 12:24:20;;;;;;;;;;;14.50;68.50;;;;;;5072496;28;19938;-83
2022/09/17 12:26:56;;;;;;;;;;;14.30;69.50;;;;;;5054928;28;19916;-83
2022/09/17 12:29:24;;;;;;;;;;;14.20;70.50;;;;;;5053976;28;19903;-81
2022/09/17 12:31:55;;;;;;;;;;;14.10;71.00;;;;;;5076440;28;19925;-83
2022/09/17 12:34:29;;;;;;;;;;;13.80;74.30;;;;;;5052804;28;19919;-82
2022/09/17 12:37:11;;;;;;;;;;;13.60;75.60;;;;;;5067277;28;19913;-82
2022/09/17 12:39:52;;;;;;;;;;;13.50;78.00;;;;;;5062034;28;19921;-82
2022/09/17 12:42:27;;;;;;;;;;;13.30;79.40;;;;;;5048152;28;19912;-83
2022/09/17 12:45:16;;;;;;;;;;;13.20;79.50;;;;;;5060710;28;19919;-80
2022/09/17 12:47:42;;;;;;;;;;;13.10;77.70;;;;;;5055016;28;19921;-79
2022/09/17 12:50:26;;;;;;;;;;;13.00;78.80;;;;;;5049213;28;19920;-78
2022/09/17 12:53:12;;;;;;;;;;;13.10;79.20;;;;;;5066733;28;19916;-78
2022/09/17 12:55:58;;;;;;;;;;;13.10;77.30;;;;;;5042562;28;19959;-78
2022/09/17 12:58:35;;;;;;;;;;;13.10;77.30;;;;;;5064417;28;20395;-77
2022/09/17 13:01:04;;;;;;;;;;;13.10;77.00;;;;;;5068619;28;20358;-77
2022/09/17 13:03:34;;;;;;;;;;;13.10;79.50;;;;;;5064894;28;19921;-78
2022/09/17 13:06:18;;;;;;;;;;;13.40;79.60;;;;;;5065746;28;19978;-79
2022/09/17 13:09:01;;;;;;;;;;;13.70;77.30;;;;;;5067971;28;19962;-78
2022/09/17 13:11:36;;;;;;;;;;;14.00;77.20;;;;;;5072141;28;19918;-78
2022/09/17 13:14:12;;;;;;;;;;;14.20;74.40;;;;;;5070119;28;20000;-80
2022/09/17 13:16:40;;;;;;;;;;;14.20;74.50;;;;;;5066925;28;19913;-79
2022/09/17 13:19:16;;;;;;;;;;;13.90;77.50;;;;;;5072081;28;20007;-79
2022/09/17 13:21:48;;;;;;;;;;;13.40;78.90;;;;;;5041705;28;20007;-78
2022/09/17 13:24:19;;;;;;;;;;;13.10;78.10;;;;;;5058357;28;19951;-79
2022/09/17 13:26:45;;;;;;;;;;;12.90;79.90;;;;;;5056276;28;19921;-79
2022/09/17 13:29:13;;;;;;;;;;;13.00;80.60;;;;;;5054601;28;19913;-78
2022/09/17 13:31:39;;;;;;;;;;;13.00;81.00;;;;;;5074010;28;19912;-79
2022/09/17 13:34:17;;;;;;;;;;;13.00;81.90;;;;;;5068499;28;20007;-79
2022/09/17 13:36:46;;;;;;;;;;;13.10;82.20;;;;;;5063624;28;19913;-79
2022/09/17 13:39:30;;;;;;;;;;;13.20;81.10;;;;;;5056649;28;19912;-79
2022/09/17 13:42:05;;;;;;;;;;;13.20;81.20;;;;;;5047114;28;19912;-78
2022/09/17 13:44:33;;;;;;;;;;;13.30;81.60;;;;;;5069656;28;19917;-78
2022/09/17 13:47:18;;;;;;;;;;;13.50;80.00;;;;;;5067234;28;19951;-78
2022/09/17 13:49:52;;;;;;;;;;;13.60;78.20;;;;;;5062643;28;20295;-78
2022/09/17 13:52:29;;;;;;;;;;;13.50;76.40;;;;;;5068224;28;19912;-80
2022/09/17 13:54:55;;;;;;;;;;;13.60;76.10;;;;;;5064876;28;19920;-80
2022/09/17 13:57:21;;;;;;;;;;;13.60;76.50;;;;;;5052605;28;19944;-80
2022/09/17 13:59:54;;;;;;;;;;;13.70;76.80;;;;;;5073172;28;19912;-80
2022/09/17 14:02:23;;;;;;;;;;;13.80;78.30;;;;;;5067084;28;20355;-80
2022/09/17 14:04:49;;;;;;;;;;;14.00;75.50;;;;;;5046050;28;19913;-80
2022/09/17 14:07:25;;;;;;;;;;;13.90;74.80;;;;;;5065980;28;20003;-81
2022/09/17 14:09:54;;;;;;;;;;;13.80;73.70;;;;;;5045689;28;19947;-81
2022/09/17 14:12:38;;;;;;;;;;;13.60;76.50;;;;;;5065967;28;19920;-82
2022/09/17 14:15:24;;;;;;;;;;;13.50;76.10;;;;;;5047732;28;19999;-82
2022/09/17 14:17:50;;;;;;;;;;;13.70;75.70;;;;;;5064501;28;19956;-81
2022/09/17 14:20:17;;;;;;;;;;;13.60;75.00;;;;;;5078362;28;19920;-82
2022/09/17 14:22:43;;;;;;;;;;;13.50;76.50;;;;;;5057997;28;19912;-83
2022/09/17 14:25:15;;;;;;;;;;;13.50;76.30;;;;;;5075846;28;20294;-81
2022/09/17 14:27:40;;;;;;;;;;;13.60;76.10;;;;;;5053383;28;20007;-80
2022/09/17 14:30:17;;;;;;;;;;;13.40;78.90;;;;;;5074780;28;19940;-79
2022/09/17 14:32:55;;;;;;;;;;;13.30;79.10;;;;;;5065351;28;19926;-81
2022/09/17 14:35:23;;;;;;;;;;;13.20;81.80;;;;;;5070584;28;19912;-79
2022/09/17 14:37:53;;;;;;;;;;;13.10;81.40;;;;;;5072822;28;20435;-83
2022/09/17 14:40:19;;;;;;;;;;;13.10;80.90;;;;;;5039538;28;19916;-84
2022/09/17 14:42:46;;;;;;;;;;;13.10;79.40;;;;;;5046863;28;19912;-84
2022/09/17 14:45:18;;;;;;;;;;;13.00;79.60;;;;;;5076902;28;19920;-82
2022/09/17 14:47:43;;;;;;;;;;;12.90;81.40;;;;;;5066963;28;19916;-81
2022/09/17 14:50:30;;;;;;;;;;;13.00;81.60;;;;;;5049281;28;19992;-82